sensor_id;sensor_type;location;lat;lon;timestamp;P1;durP1;ratioP1;P2;durP2;ratioP2
19384;SDS011;9828;54.122;17.974;2023-12-28T00:02:28;18.47;;;9.20;;
19384;SDS011;9828;54.122;17.974;2023-12-28T00:07:49;22.80;;;8.90;;
19384;SDS011;9828;54.122;17.974;2023-12-28T00:13:17;21.83;;;9.10;;
19384;SDS011;9828;54.122;17.974;2023-12-28T00:18:39;19.87;;;10.53;;
19384;SDS011;9828;54.122;17.974;2023-12-28T00:24:00;24.93;;;10.30;;
19384;SDS011;9828;54.122;17.974;2023-12-28T00:29:21;32.30;;;10.63;;
19384;SDS011;9828;54.122;17.974;2023-12-28T00:34:42;24.30;;;9.87;;
19384;SDS011;9828;54.122;17.974;2023-12-28T00:40:04;21.07;;;10.30;;
19384;SDS011;9828;54.122;17.974;2023-12-28T00:45:26;27.87;;;9.87;;
19384;SDS011;9828;54.122;17.974;2023-12-28T00:50:47;21.90;;;8.93;;
19384;SDS011;9828;54.122;17.974;2023-12-28T00:56:09;17.17;;;8.10;;
19384;SDS011;9828;54.122;17.974;2023-12-28T01:01:31;28.23;;;9.33;;
19384;SDS011;9828;54.122;17.974;2023-12-28T01:06:52;19.97;;;9.50;;
19384;SDS011;9828;54.122;17.974;2023-12-28T01:12:13;15.70;;;8.70;;
19384;SDS011;9828;54.122;17.974;2023-12-28T01:17:35;25.13;;;8.90;;
19384;SDS011;9828;54.122;17.974;2023-12-28T01:22:57;20.83;;;8.43;;
19384;SDS011;9828;54.122;17.974;2023-12-28T01:28:18;19.10;;;8.33;;
19384;SDS011;9828;54.122;17.974;2023-12-28T01:33:39;20.87;;;8.37;;
19384;SDS011;9828;54.122;17.974;2023-12-28T01:39:01;20.80;;;8.30;;
19384;SDS011;9828;54.122;17.974;2023-12-28T01:44:22;24.17;;;9.57;;
19384;SDS011;9828;54.122;17.974;2023-12-28T01:49:44;20.33;;;8.13;;
19384;SDS011;9828;54.122;17.974;2023-12-28T01:55:06;18.20;;;8.43;;
19384;SDS011;9828;54.122;17.974;2023-12-28T02:00:29;20.87;;;8.80;;
19384;SDS011;9828;54.122;17.974;2023-12-28T02:05:52;20.17;;;8.70;;
19384;SDS011;9828;54.122;17.974;2023-12-28T02:11:14;19.83;;;8.10;;
19384;SDS011;9828;54.122;17.974;2023-12-28T02:16:36;22.93;;;9.40;;
19384;SDS011;9828;54.122;17.974;2023-12-28T02:22:03;18.40;;;7.77;;
19384;SDS011;9828;54.122;17.974;2023-12-28T02:27:25;21.97;;;8.53;;
19384;SDS011;9828;54.122;17.974;2023-12-28T02:38:32;23.77;;;9.97;;
19384;SDS011;9828;54.122;17.974;2023-12-28T02:43:58;23.10;;;9.67;;
19384;SDS011;9828;54.122;17.974;2023-12-28T02:49:20;21.93;;;9.33;;
19384;SDS011;9828;54.122;17.974;2023-12-28T02:54:42;23.70;;;11.30;;
19384;SDS011;9828;54.122;17.974;2023-12-28T03:00:07;28.00;;;11.57;;
19384;SDS011;9828;54.122;17.974;2023-12-28T03:05:29;24.60;;;11.73;;
19384;SDS011;9828;54.122;17.974;2023-12-28T03:10:50;26.53;;;12.33;;
19384;SDS011;9828;54.122;17.974;2023-12-28T03:16:13;27.87;;;13.23;;
19384;SDS011;9828;54.122;17.974;2023-12-28T03:21:38;25.53;;;12.60;;
19384;SDS011;9828;54.122;17.974;2023-12-28T03:27:00;27.47;;;12.90;;
19384;SDS011;9828;54.122;17.974;2023-12-28T03:32:23;32.97;;;14.13;;
19384;SDS011;9828;54.122;17.974;2023-12-28T03:37:44;31.70;;;13.30;;
19384;SDS011;9828;54.122;17.974;2023-12-28T03:43:06;25.83;;;14.13;;
19384;SDS011;9828;54.122;17.974;2023-12-28T03:48:28;31.20;;;13.97;;
19384;SDS011;9828;54.122;17.974;2023-12-28T03:53:49;27.03;;;14.40;;
19384;SDS011;9828;54.122;17.974;2023-12-28T03:59:10;25.77;;;13.47;;
19384;SDS011;9828;54.122;17.974;2023-12-28T04:04:31;32.70;;;14.23;;
19384;SDS011;9828;54.122;17.974;2023-12-28T04:09:53;27.93;;;14.30;;
19384;SDS011;9828;54.122;17.974;2023-12-28T04:15:15;36.23;;;15.43;;
19384;SDS011;9828;54.122;17.974;2023-12-28T04:20:36;62.13;;;27.37;;
19384;SDS011;9828;54.122;17.974;2023-12-28T04:25:58;37.63;;;17.00;;
19384;SDS011;9828;54.122;17.974;2023-12-28T04:31:19;34.13;;;15.57;;
19384;SDS011;9828;54.122;17.974;2023-12-28T04:36:41;36.20;;;17.47;;
19384;SDS011;9828;54.122;17.974;2023-12-28T04:42:03;33.90;;;13.47;;
19384;SDS011;9828;54.122;17.974;2023-12-28T04:47:25;37.37;;;15.80;;
19384;SDS011;9828;54.122;17.974;2023-12-28T04:52:47;27.03;;;14.47;;
19384;SDS011;9828;54.122;17.974;2023-12-28T04:58:10;33.90;;;14.23;;
19384;SDS011;9828;54.122;17.974;2023-12-28T05:03:32;30.63;;;16.73;;
19384;SDS011;9828;54.122;17.974;2023-12-28T05:08:53;30.80;;;14.37;;
19384;SDS011;9828;54.122;17.974;2023-12-28T05:14:15;27.47;;;13.00;;
19384;SDS011;9828;54.122;17.974;2023-12-28T05:19:36;29.90;;;14.23;;
19384;SDS011;9828;54.122;17.974;2023-12-28T05:24:57;27.33;;;14.00;;
19384;SDS011;9828;54.122;17.974;2023-12-28T05:30:19;27.43;;;12.73;;
19384;SDS011;9828;54.122;17.974;2023-12-28T05:35:40;44.20;;;24.60;;
19384;SDS011;9828;54.122;17.974;2023-12-28T05:41:01;71.53;;;30.57;;
19384;SDS011;9828;54.122;17.974;2023-12-28T05:46:23;47.30;;;21.80;;
19384;SDS011;9828;54.122;17.974;2023-12-28T05:51:44;53.73;;;29.40;;
19384;SDS011;9828;54.122;17.974;2023-12-28T05:57:05;45.10;;;24.30;;
19384;SDS011;9828;54.122;17.974;2023-12-28T06:02:26;42.00;;;19.77;;
19384;SDS011;9828;54.122;17.974;2023-12-28T06:07:48;37.23;;;17.30;;
19384;SDS011;9828;54.122;17.974;2023-12-28T06:13:10;35.60;;;18.80;;
19384;SDS011;9828;54.122;17.974;2023-12-28T06:18:31;44.87;;;21.47;;
19384;SDS011;9828;54.122;17.974;2023-12-28T06:23:52;38.30;;;19.13;;
19384;SDS011;9828;54.122;17.974;2023-12-28T06:29:13;29.80;;;14.13;;
19384;SDS011;9828;54.122;17.974;2023-12-28T06:34:34;28.87;;;13.57;;
19384;SDS011;9828;54.122;17.974;2023-12-28T06:39:56;30.23;;;12.17;;
19384;SDS011;9828;54.122;17.974;2023-12-28T06:45:17;30.53;;;14.07;;
19384;SDS011;9828;54.122;17.974;2023-12-28T06:50:38;25.50;;;12.17;;
19384;SDS011;9828;54.122;17.974;2023-12-28T06:56:00;30.97;;;12.03;;
19384;SDS011;9828;54.122;17.974;2023-12-28T07:01:21;23.23;;;11.90;;
19384;SDS011;9828;54.122;17.974;2023-12-28T07:06:42;34.73;;;13.00;;
19384;SDS011;9828;54.122;17.974;2023-12-28T07:12:04;32.80;;;13.97;;
19384;SDS011;9828;54.122;17.974;2023-12-28T07:17:26;31.27;;;15.20;;
19384;SDS011;9828;54.122;17.974;2023-12-28T07:22:47;37.30;;;17.43;;
19384;SDS011;9828;54.122;17.974;2023-12-28T07:28:08;29.00;;;13.63;;
19384;SDS011;9828;54.122;17.974;2023-12-28T07:33:29;20.37;;;11.33;;
19384;SDS011;9828;54.122;17.974;2023-12-28T07:38:51;37.37;;;15.07;;
19384;SDS011;9828;54.122;17.974;2023-12-28T07:44:12;25.33;;;12.53;;
19384;SDS011;9828;54.122;17.974;2023-12-28T07:49:33;30.07;;;13.80;;
19384;SDS011;9828;54.122;17.974;2023-12-28T07:54:55;30.03;;;13.43;;
19384;SDS011;9828;54.122;17.974;2023-12-28T08:00:16;26.30;;;12.77;;
19384;SDS011;9828;54.122;17.974;2023-12-28T08:05:37;28.63;;;15.20;;
19384;SDS011;9828;54.122;17.974;2023-12-28T08:10:59;30.50;;;13.27;;
19384;SDS011;9828;54.122;17.974;2023-12-28T08:16:20;27.73;;;13.00;;
19384;SDS011;9828;54.122;17.974;2023-12-28T08:21:41;29.53;;;13.60;;
19384;SDS011;9828;54.122;17.974;2023-12-28T08:27:03;23.00;;;11.93;;
19384;SDS011;9828;54.122;17.974;2023-12-28T08:32:24;25.00;;;12.60;;
19384;SDS011;9828;54.122;17.974;2023-12-28T08:37:45;24.90;;;12.67;;
19384;SDS011;9828;54.122;17.974;2023-12-28T08:43:06;26.03;;;13.83;;
19384;SDS011;9828;54.122;17.974;2023-12-28T08:48:28;26.83;;;12.13;;
19384;SDS011;9828;54.122;17.974;2023-12-28T08:53:49;18.80;;;10.63;;
19384;SDS011;9828;54.122;17.974;2023-12-28T08:59:10;23.50;;;11.03;;
19384;SDS011;9828;54.122;17.974;2023-12-28T09:04:32;21.47;;;10.70;;
19384;SDS011;9828;54.122;17.974;2023-12-28T09:09:54;20.00;;;10.87;;
19384;SDS011;9828;54.122;17.974;2023-12-28T09:15:15;27.53;;;17.40;;
19384;SDS011;9828;54.122;17.974;2023-12-28T09:20:36;30.07;;;14.40;;
19384;SDS011;9828;54.122;17.974;2023-12-28T09:26:01;24.10;;;12.73;;
19384;SDS011;9828;54.122;17.974;2023-12-28T09:31:26;16.53;;;10.37;;
19384;SDS011;9828;54.122;17.974;2023-12-28T09:36:48;24.10;;;12.47;;
19384;SDS011;9828;54.122;17.974;2023-12-28T09:42:11;24.17;;;12.17;;
19384;SDS011;9828;54.122;17.974;2023-12-28T09:47:37;23.33;;;11.40;;
19384;SDS011;9828;54.122;17.974;2023-12-28T09:52:59;18.93;;;9.90;;
19384;SDS011;9828;54.122;17.974;2023-12-28T09:58:20;18.00;;;9.70;;
19384;SDS011;9828;54.122;17.974;2023-12-28T10:03:42;20.67;;;9.63;;
19384;SDS011;9828;54.122;17.974;2023-12-28T10:09:05;22.23;;;10.47;;
19384;SDS011;9828;54.122;17.974;2023-12-28T10:14:28;22.90;;;10.80;;
19384;SDS011;9828;54.122;17.974;2023-12-28T10:19:50;15.80;;;8.60;;
19384;SDS011;9828;54.122;17.974;2023-12-28T10:25:11;14.40;;;7.07;;
19384;SDS011;9828;54.122;17.974;2023-12-28T10:30:33;15.37;;;7.23;;
19384;SDS011;9828;54.122;17.974;2023-12-28T10:35:54;27.37;;;11.40;;
19384;SDS011;9828;54.122;17.974;2023-12-28T10:41:20;32.07;;;15.13;;
19384;SDS011;9828;54.122;17.974;2023-12-28T10:46:42;26.73;;;12.27;;
19384;SDS011;9828;54.122;17.974;2023-12-28T10:52:04;17.23;;;9.87;;
19384;SDS011;9828;54.122;17.974;2023-12-28T10:57:37;25.17;;;12.23;;
19384;SDS011;9828;54.122;17.974;2023-12-28T11:03:06;20.87;;;9.07;;
19384;SDS011;9828;54.122;17.974;2023-12-28T11:08:32;20.13;;;10.53;;
19384;SDS011;9828;54.122;17.974;2023-12-28T11:13:55;22.13;;;12.27;;
19384;SDS011;9828;54.122;17.974;2023-12-28T11:19:17;33.27;;;15.20;;
19384;SDS011;9828;54.122;17.974;2023-12-28T11:24:39;23.87;;;11.37;;
19384;SDS011;9828;54.122;17.974;2023-12-28T11:30:00;20.87;;;11.30;;
19384;SDS011;9828;54.122;17.974;2023-12-28T11:35:24;28.13;;;12.00;;
19384;SDS011;9828;54.122;17.974;2023-12-28T11:40:59;23.87;;;11.00;;
19384;SDS011;9828;54.122;17.974;2023-12-28T11:46:24;24.77;;;11.07;;
19384;SDS011;9828;54.122;17.974;2023-12-28T11:51:53;16.10;;;8.50;;
19384;SDS011;9828;54.122;17.974;2023-12-28T11:57:16;16.10;;;8.53;;
19384;SDS011;9828;54.122;17.974;2023-12-28T12:02:37;10.73;;;5.60;;
19384;SDS011;9828;54.122;17.974;2023-12-28T12:08:08;14.23;;;7.43;;
19384;SDS011;9828;54.122;17.974;2023-12-28T12:13:34;16.00;;;8.20;;
19384;SDS011;9828;54.122;17.974;2023-12-28T12:18:56;16.17;;;7.83;;
19384;SDS011;9828;54.122;17.974;2023-12-28T12:24:19;18.27;;;8.03;;
19384;SDS011;9828;54.122;17.974;2023-12-28T12:29:41;14.80;;;8.17;;
19384;SDS011;9828;54.122;17.974;2023-12-28T12:35:02;18.13;;;8.17;;
19384;SDS011;9828;54.122;17.974;2023-12-28T12:40:24;13.43;;;6.20;;
19384;SDS011;9828;54.122;17.974;2023-12-28T12:45:46;18.83;;;6.93;;
19384;SDS011;9828;54.122;17.974;2023-12-28T12:51:08;13.10;;;7.07;;
19384;SDS011;9828;54.122;17.974;2023-12-28T12:56:29;10.37;;;5.50;;
19384;SDS011;9828;54.122;17.974;2023-12-28T13:01:52;13.87;;;6.53;;
19384;SDS011;9828;54.122;17.974;2023-12-28T13:07:13;12.63;;;6.43;;
19384;SDS011;9828;54.122;17.974;2023-12-28T13:12:35;11.53;;;5.57;;
19384;SDS011;9828;54.122;17.974;2023-12-28T13:17:56;14.37;;;7.80;;
19384;SDS011;9828;54.122;17.974;2023-12-28T13:23:18;14.03;;;5.70;;
19384;SDS011;9828;54.122;17.974;2023-12-28T13:28:39;12.57;;;5.27;;
19384;SDS011;9828;54.122;17.974;2023-12-28T13:34:01;15.43;;;5.77;;
19384;SDS011;9828;54.122;17.974;2023-12-28T13:39:22;13.13;;;5.77;;
19384;SDS011;9828;54.122;17.974;2023-12-28T13:44:43;21.60;;;7.63;;
19384;SDS011;9828;54.122;17.974;2023-12-28T13:50:05;14.47;;;6.50;;
19384;SDS011;9828;54.122;17.974;2023-12-28T13:55:26;16.17;;;6.03;;
19384;SDS011;9828;54.122;17.974;2023-12-28T14:00:49;12.00;;;5.27;;
19384;SDS011;9828;54.122;17.974;2023-12-28T14:06:10;59.33;;;27.30;;
19384;SDS011;9828;54.122;17.974;2023-12-28T14:11:31;46.03;;;27.90;;
19384;SDS011;9828;54.122;17.974;2023-12-28T14:16:52;21.20;;;9.23;;
19384;SDS011;9828;54.122;17.974;2023-12-28T14:22:13;31.60;;;11.13;;
19384;SDS011;9828;54.122;17.974;2023-12-28T14:27:35;24.43;;;8.93;;
19384;SDS011;9828;54.122;17.974;2023-12-28T14:32:57;49.10;;;18.93;;
19384;SDS011;9828;54.122;17.974;2023-12-28T14:38:18;18.43;;;8.33;;
19384;SDS011;9828;54.122;17.974;2023-12-28T14:43:40;23.10;;;8.00;;
19384;SDS011;9828;54.122;17.974;2023-12-28T14:49:01;17.47;;;7.03;;
19384;SDS011;9828;54.122;17.974;2023-12-28T14:54:24;29.80;;;12.60;;
19384;SDS011;9828;54.122;17.974;2023-12-28T14:59:45;29.23;;;10.97;;
19384;SDS011;9828;54.122;17.974;2023-12-28T15:05:06;57.37;;;22.40;;
19384;SDS011;9828;54.122;17.974;2023-12-28T15:10:31;48.33;;;18.23;;
19384;SDS011;9828;54.122;17.974;2023-12-28T15:15:53;31.47;;;9.83;;
19384;SDS011;9828;54.122;17.974;2023-12-28T15:21:14;20.87;;;8.90;;
19384;SDS011;9828;54.122;17.974;2023-12-28T15:26:36;28.53;;;10.53;;
19384;SDS011;9828;54.122;17.974;2023-12-28T15:31:57;35.70;;;14.03;;
19384;SDS011;9828;54.122;17.974;2023-12-28T15:37:18;19.17;;;7.73;;
19384;SDS011;9828;54.122;17.974;2023-12-28T15:42:39;18.03;;;6.80;;
19384;SDS011;9828;54.122;17.974;2023-12-28T15:48:01;14.73;;;6.30;;
19384;SDS011;9828;54.122;17.974;2023-12-28T15:53:22;21.73;;;8.83;;
19384;SDS011;9828;54.122;17.974;2023-12-28T15:58:44;21.63;;;9.23;;
19384;SDS011;9828;54.122;17.974;2023-12-28T16:04:05;16.10;;;6.90;;
19384;SDS011;9828;54.122;17.974;2023-12-28T16:09:27;15.57;;;7.73;;
19384;SDS011;9828;54.122;17.974;2023-12-28T16:14:50;13.63;;;7.70;;
19384;SDS011;9828;54.122;17.974;2023-12-28T16:20:12;13.40;;;7.53;;
19384;SDS011;9828;54.122;17.974;2023-12-28T16:25:34;25.73;;;11.70;;
19384;SDS011;9828;54.122;17.974;2023-12-28T16:30:55;33.03;;;15.00;;
19384;SDS011;9828;54.122;17.974;2023-12-28T16:36:16;28.53;;;11.67;;
19384;SDS011;9828;54.122;17.974;2023-12-28T16:41:38;17.50;;;6.87;;
19384;SDS011;9828;54.122;17.974;2023-12-28T16:47:00;12.13;;;5.57;;
19384;SDS011;9828;54.122;17.974;2023-12-28T16:52:23;14.43;;;5.83;;
19384;SDS011;9828;54.122;17.974;2023-12-28T16:57:44;10.03;;;5.13;;
19384;SDS011;9828;54.122;17.974;2023-12-28T17:03:05;10.03;;;4.57;;
19384;SDS011;9828;54.122;17.974;2023-12-28T17:08:26;14.77;;;6.57;;
19384;SDS011;9828;54.122;17.974;2023-12-28T17:13:48;14.37;;;6.13;;
19384;SDS011;9828;54.122;17.974;2023-12-28T17:19:09;13.43;;;6.67;;
19384;SDS011;9828;54.122;17.974;2023-12-28T17:24:32;12.77;;;5.20;;
19384;SDS011;9828;54.122;17.974;2023-12-28T17:30:05;26.00;;;10.53;;
19384;SDS011;9828;54.122;17.974;2023-12-28T17:35:29;19.07;;;7.90;;
19384;SDS011;9828;54.122;17.974;2023-12-28T17:40:50;35.17;;;12.00;;
19384;SDS011;9828;54.122;17.974;2023-12-28T17:51:44;13.07;;;6.03;;
19384;SDS011;9828;54.122;17.974;2023-12-28T17:57:07;18.87;;;9.00;;
19384;SDS011;9828;54.122;17.974;2023-12-28T18:02:28;15.90;;;9.23;;
19384;SDS011;9828;54.122;17.974;2023-12-28T18:07:49;13.90;;;7.43;;
19384;SDS011;9828;54.122;17.974;2023-12-28T18:13:10;15.97;;;8.10;;
19384;SDS011;9828;54.122;17.974;2023-12-28T18:18:32;12.47;;;6.70;;
19384;SDS011;9828;54.122;17.974;2023-12-28T18:23:53;19.67;;;7.70;;
19384;SDS011;9828;54.122;17.974;2023-12-28T18:29:14;10.30;;;6.23;;
19384;SDS011;9828;54.122;17.974;2023-12-28T18:34:36;17.20;;;6.80;;
19384;SDS011;9828;54.122;17.974;2023-12-28T18:39:57;15.43;;;6.03;;
19384;SDS011;9828;54.122;17.974;2023-12-28T18:45:19;14.40;;;5.47;;
19384;SDS011;9828;54.122;17.974;2023-12-28T18:50:40;14.13;;;6.07;;
19384;SDS011;9828;54.122;17.974;2023-12-28T18:56:02;11.00;;;4.97;;
19384;SDS011;9828;54.122;17.974;2023-12-28T19:01:23;12.93;;;5.33;;
19384;SDS011;9828;54.122;17.974;2023-12-28T19:06:44;15.37;;;6.67;;
19384;SDS011;9828;54.122;17.974;2023-12-28T19:12:07;16.83;;;7.30;;
19384;SDS011;9828;54.122;17.974;2023-12-28T19:17:29;21.77;;;9.80;;
19384;SDS011;9828;54.122;17.974;2023-12-28T19:22:50;11.93;;;6.33;;
19384;SDS011;9828;54.122;17.974;2023-12-28T19:28:11;16.37;;;7.50;;
19384;SDS011;9828;54.122;17.974;2023-12-28T19:33:33;20.53;;;8.40;;
19384;SDS011;9828;54.122;17.974;2023-12-28T19:38:54;18.00;;;7.43;;
19384;SDS011;9828;54.122;17.974;2023-12-28T19:44:15;13.53;;;6.57;;
19384;SDS011;9828;54.122;17.974;2023-12-28T19:49:37;15.17;;;8.13;;
19384;SDS011;9828;54.122;17.974;2023-12-28T19:54:59;16.53;;;6.77;;
19384;SDS011;9828;54.122;17.974;2023-12-28T20:00:20;15.67;;;7.53;;
19384;SDS011;9828;54.122;17.974;2023-12-28T20:05:41;12.23;;;6.37;;
19384;SDS011;9828;54.122;17.974;2023-12-28T20:11:03;12.27;;;6.40;;
19384;SDS011;9828;54.122;17.974;2023-12-28T20:16:24;12.70;;;5.20;;
19384;SDS011;9828;54.122;17.974;2023-12-28T20:21:45;16.80;;;8.43;;
19384;SDS011;9828;54.122;17.974;2023-12-28T20:27:07;20.30;;;9.13;;
19384;SDS011;9828;54.122;17.974;2023-12-28T20:32:28;29.67;;;21.93;;
19384;SDS011;9828;54.122;17.974;2023-12-28T20:37:49;27.03;;;15.77;;
19384;SDS011;9828;54.122;17.974;2023-12-28T20:43:10;13.87;;;6.67;;
19384;SDS011;9828;54.122;17.974;2023-12-28T20:48:32;22.17;;;7.37;;
19384;SDS011;9828;54.122;17.974;2023-12-28T20:53:53;20.07;;;6.90;;
19384;SDS011;9828;54.122;17.974;2023-12-28T20:59:15;31.17;;;11.10;;
19384;SDS011;9828;54.122;17.974;2023-12-28T21:04:36;15.90;;;5.97;;
19384;SDS011;9828;54.122;17.974;2023-12-28T21:09:58;10.70;;;5.20;;
19384;SDS011;9828;54.122;17.974;2023-12-28T21:15:20;17.67;;;6.20;;
19384;SDS011;9828;54.122;17.974;2023-12-28T21:20:41;17.60;;;7.20;;
19384;SDS011;9828;54.122;17.974;2023-12-28T21:26:07;45.30;;;16.40;;
19384;SDS011;9828;54.122;17.974;2023-12-28T21:31:29;25.83;;;9.60;;
19384;SDS011;9828;54.122;17.974;2023-12-28T21:36:52;22.00;;;7.37;;
19384;SDS011;9828;54.122;17.974;2023-12-28T21:42:13;16.40;;;6.27;;
19384;SDS011;9828;54.122;17.974;2023-12-28T21:47:34;15.17;;;6.10;;
19384;SDS011;9828;54.122;17.974;2023-12-28T21:52:55;16.97;;;6.70;;
19384;SDS011;9828;54.122;17.974;2023-12-28T21:58:17;19.47;;;6.33;;
19384;SDS011;9828;54.122;17.974;2023-12-28T22:03:38;17.20;;;6.23;;
19384;SDS011;9828;54.122;17.974;2023-12-28T22:08:59;18.50;;;6.33;;
19384;SDS011;9828;54.122;17.974;2023-12-28T22:14:21;31.77;;;12.63;;
19384;SDS011;9828;54.122;17.974;2023-12-28T22:19:43;24.37;;;9.87;;
19384;SDS011;9828;54.122;17.974;2023-12-28T22:25:04;15.57;;;7.33;;
19384;SDS011;9828;54.122;17.974;2023-12-28T22:30:26;18.37;;;9.33;;
19384;SDS011;9828;54.122;17.974;2023-12-28T22:35:47;13.97;;;4.60;;
19384;SDS011;9828;54.122;17.974;2023-12-28T22:41:09;7.73;;;4.23;;
19384;SDS011;9828;54.122;17.974;2023-12-28T22:46:30;7.57;;;4.50;;
19384;SDS011;9828;54.122;17.974;2023-12-28T22:51:51;11.37;;;3.83;;
19384;SDS011;9828;54.122;17.974;2023-12-28T22:57:22;7.17;;;3.93;;
19384;SDS011;9828;54.122;17.974;2023-12-28T23:02:43;5.60;;;3.53;;
19384;SDS011;9828;54.122;17.974;2023-12-28T23:08:04;8.57;;;3.60;;
19384;SDS011;9828;54.122;17.974;2023-12-28T23:13:26;7.50;;;3.90;;
19384;SDS011;9828;54.122;17.974;2023-12-28T23:18:47;10.00;;;4.17;;
19384;SDS011;9828;54.122;17.974;2023-12-28T23:24:09;7.80;;;4.70;;
19384;SDS011;9828;54.122;17.974;2023-12-28T23:29:30;8.80;;;4.47;;
19384;SDS011;9828;54.122;17.974;2023-12-28T23:34:51;9.97;;;4.50;;
19384;SDS011;9828;54.122;17.974;2023-12-28T23:40:16;9.73;;;3.77;;
19384;SDS011;9828;54.122;17.974;2023-12-28T23:45:37;7.97;;;3.60;;
19384;SDS011;9828;54.122;17.974;2023-12-28T23:50:59;7.27;;;3.30;;
19384;SDS011;9828;54.122;17.974;2023-12-28T23:56:21;7.23;;;3.27;;
